createdAt,value
2023-07-22T00:01:29.943Z,4.38
2023-07-22T00:06:31.631Z,4.63
2023-07-22T00:11:33.201Z,4.65
2023-07-22T00:16:34.756Z,5.20
2023-07-22T00:21:36.281Z,4.25
2023-07-22T00:26:37.881Z,4.35
2023-07-22T00:31:39.374Z,4.15
2023-07-22T00:36:41.017Z,4.05
2023-07-22T00:41:45.326Z,4.10
2023-07-22T00:46:46.923Z,4.07
2023-07-22T00:51:48.436Z,4.25
2023-07-22T00:56:50.033Z,4.15
2023-07-22T01:01:51.754Z,4.28
2023-07-22T01:06:56.509Z,4.50
2023-07-22T01:11:58.395Z,4.50
2023-07-22T01:16:59.978Z,4.32
2023-07-22T01:22:03.082Z,4.82
2023-07-22T01:27:05.691Z,4.85
2023-07-22T01:32:07.312Z,4.38
2023-07-22T01:37:10.713Z,4.28
2023-07-22T01:42:12.176Z,4.13
2023-07-22T01:47:13.606Z,4.13
2023-07-22T01:52:15.019Z,4.55
2023-07-22T01:57:16.463Z,5.07
2023-07-22T02:02:17.935Z,4.30
2023-07-22T02:07:19.542Z,4.28
2023-07-22T02:12:21.719Z,4.18
2023-07-22T02:17:23.345Z,4.32
2023-07-22T02:22:24.758Z,4.45
2023-07-22T02:27:26.220Z,4.57
2023-07-22T02:32:27.734Z,4.20
2023-07-22T02:37:29.262Z,4.30
2023-07-22T02:42:30.730Z,5.20
2023-07-22T02:47:33.937Z,4.93
2023-07-22T02:52:35.603Z,4.53
2023-07-22T02:57:37.245Z,4.85
2023-07-22T03:02:39.484Z,4.53
2023-07-22T03:07:41.817Z,4.93
2023-07-22T03:12:43.286Z,5.18
2023-07-22T03:17:44.900Z,5.10
2023-07-22T03:22:46.869Z,4.35
2023-07-22T03:27:48.316Z,4.43
2023-07-22T03:32:51.569Z,4.40
2023-07-22T03:37:54.474Z,4.78
2023-07-22T03:42:56.844Z,5.00
2023-07-22T03:47:59.108Z,4.80
2023-07-22T03:53:00.653Z,4.80
2023-07-22T03:58:02.309Z,4.80
2023-07-22T04:03:04.651Z,4.25
2023-07-22T04:08:06.192Z,4.40
2023-07-22T04:13:07.880Z,4.55
2023-07-22T04:18:09.437Z,4.80
2023-07-22T04:23:11.233Z,4.63
2023-07-22T04:28:13.796Z,4.63
2023-07-22T04:33:15.398Z,4.57
2023-07-22T04:38:16.923Z,4.13
2023-07-22T04:43:19.663Z,4.05
2023-07-22T04:48:24.563Z,4.40
2023-07-22T04:53:26.028Z,4.82
2023-07-22T04:58:27.576Z,4.30
2023-07-22T05:03:29.246Z,4.65
2023-07-22T05:08:30.727Z,5.03
2023-07-22T05:13:32.146Z,4.95
2023-07-22T05:18:33.594Z,4.50
2023-07-22T05:23:35.031Z,4.97
2023-07-22T05:28:36.605Z,5.40
2023-07-22T05:33:38.626Z,4.43
2023-07-22T05:38:40.115Z,4.40
2023-07-22T05:43:41.531Z,4.85
2023-07-22T05:48:42.956Z,4.43
2023-07-22T05:53:44.587Z,4.40
2023-07-22T05:58:46.044Z,5.15
2023-07-22T06:03:47.541Z,3.90
2023-07-22T06:08:49.016Z,4.18
2023-07-22T06:13:50.512Z,4.13
2023-07-22T06:18:51.899Z,3.95
2023-07-22T06:23:53.412Z,3.80
2023-07-22T06:28:54.917Z,4.20
2023-07-22T06:33:56.373Z,3.65
2023-07-22T06:38:58.083Z,3.35
2023-07-22T06:43:59.544Z,3.70
2023-07-22T06:49:01.124Z,3.28
2023-07-22T06:54:03.688Z,3.33
2023-07-22T06:59:05.557Z,2.88
2023-07-22T07:04:07.151Z,2.78
2023-07-22T07:09:08.693Z,2.22
2023-07-22T07:14:10.258Z,2.20
2023-07-22T07:19:11.761Z,2.20
2023-07-22T07:24:13.823Z,2.40
2023-07-22T07:29:17.888Z,2.20
2023-07-22T07:34:29.954Z,2.28
2023-07-22T07:39:31.392Z,2.40
2023-07-22T07:44:32.904Z,2.90
2023-07-22T07:49:34.638Z,2.88
2023-07-22T07:54:36.261Z,2.97
2023-07-22T07:59:39.569Z,2.95
2023-07-22T08:04:41.263Z,3.63
2023-07-22T08:09:42.852Z,4.20
2023-07-22T08:14:44.360Z,3.80
2023-07-22T08:19:45.852Z,2.50
2023-07-22T08:24:50.021Z,2.22
2023-07-22T08:29:51.689Z,2.13
2023-07-22T08:34:53.196Z,2.40
2023-07-22T08:39:54.664Z,2.50
2023-07-22T08:44:58.106Z,2.33
2023-07-22T08:50:00.862Z,2.47
2023-07-22T08:55:02.549Z,2.63
2023-07-22T09:00:06.924Z,3.03
2023-07-22T09:05:10.313Z,3.35
2023-07-22T09:10:12.325Z,4.45
2023-07-22T09:15:14.208Z,4.90
2023-07-22T09:20:16.002Z,4.88
2023-07-22T09:25:17.728Z,5.20
2023-07-22T09:30:21.544Z,5.10
2023-07-22T09:35:23.463Z,4.45
2023-07-22T09:40:26.300Z,4.28
2023-07-22T09:45:30.709Z,5.65
2023-07-22T09:50:32.569Z,5.35
2023-07-22T09:55:34.760Z,5.57
2023-07-22T10:00:37.044Z,6.15
2023-07-22T10:05:39.351Z,6.00
2023-07-22T10:10:42.513Z,5.72
2023-07-22T10:15:44.359Z,5.82
2023-07-22T10:20:45.992Z,4.35
2023-07-22T10:25:47.741Z,3.13
2023-07-22T10:30:49.211Z,3.08
2023-07-22T10:36:04.287Z,2.80
2023-07-22T10:41:26.112Z,2.65
2023-07-22T10:46:40.010Z,2.67
2023-07-22T10:51:41.842Z,2.30
2023-07-22T10:56:46.237Z,2.20
2023-07-22T11:01:48.382Z,2.20
2023-07-22T11:06:49.996Z,1.98
2023-07-22T11:11:51.745Z,2.15
2023-07-22T11:16:53.471Z,1.65
2023-07-22T11:21:55.641Z,1.70
2023-07-22T11:26:57.375Z,1.83
2023-07-22T11:31:58.962Z,1.90
2023-07-22T11:37:00.646Z,1.50
2023-07-22T11:42:04.963Z,2.15
2023-07-22T11:47:08.995Z,2.00
2023-07-22T11:52:11.715Z,2.38
2023-07-22T11:57:16.217Z,1.80
2023-07-22T12:02:18.526Z,1.67
2023-07-22T12:07:24.357Z,1.90
2023-07-22T12:12:35.574Z,2.17
2023-07-22T12:17:46.459Z,1.73
2023-07-22T12:22:48.040Z,2.25
2023-07-22T12:27:49.737Z,2.03
2023-07-22T12:32:51.285Z,1.85
2023-07-22T12:37:52.816Z,1.90
2023-07-22T12:42:54.378Z,2.67
2023-07-22T12:47:55.911Z,2.40
2023-07-22T12:52:57.388Z,2.38
2023-07-22T12:57:58.900Z,2.40
2023-07-22T13:03:00.519Z,2.60
2023-07-22T13:08:02.315Z,2.95
2023-07-22T13:13:03.932Z,2.90
2023-07-22T13:18:05.480Z,3.35
2023-07-22T13:23:07.064Z,2.80
2023-07-22T13:28:08.498Z,3.20
2023-07-22T13:33:10.409Z,2.90
2023-07-22T13:38:11.994Z,3.15
2023-07-22T13:43:13.461Z,3.20
2023-07-22T13:48:15.074Z,3.53
2023-07-22T13:53:16.582Z,3.15
2023-07-22T13:58:18.061Z,3.80
2023-07-22T14:03:19.768Z,3.65
2023-07-22T14:08:21.280Z,3.00
2023-07-22T14:13:22.759Z,3.22
2023-07-22T14:18:24.208Z,3.17
2023-07-22T14:23:25.701Z,3.55
2023-07-22T14:28:27.243Z,3.03
2023-07-22T14:33:28.846Z,3.13
2023-07-22T14:38:30.373Z,3.38
2023-07-22T14:43:31.815Z,3.28
2023-07-22T14:48:33.304Z,3.13
2023-07-22T14:58:36.446Z,3.17
2023-07-22T15:03:39.101Z,3.20
2023-07-22T15:08:40.638Z,3.65
2023-07-22T15:13:42.106Z,2.95
2023-07-22T15:18:44.072Z,2.88
2023-07-22T15:23:45.498Z,2.78
2023-07-22T15:28:48.213Z,2.90
2023-07-22T15:33:50.095Z,2.45
2023-07-22T15:38:51.574Z,2.60
2023-07-22T15:43:53.103Z,2.83
2023-07-22T15:48:56.109Z,2.38
2023-07-22T15:53:57.611Z,2.47
2023-07-22T15:58:59.170Z,3.22
2023-07-22T16:04:00.663Z,2.25
2023-07-22T16:09:02.139Z,2.67
2023-07-22T16:14:04.788Z,2.40
2023-07-22T16:19:06.593Z,2.35
2023-07-22T16:24:08.105Z,2.08
2023-07-22T16:29:11.811Z,2.22
2023-07-22T16:34:14.309Z,1.88
2023-07-22T16:39:15.791Z,2.40
2023-07-22T16:44:18.436Z,2.00
2023-07-22T16:49:19.891Z,1.70
2023-07-22T16:54:21.397Z,2.22
2023-07-22T16:59:23.022Z,2.05
2023-07-22T17:04:24.501Z,2.55
2023-07-22T17:09:25.977Z,2.10
2023-07-22T17:14:27.413Z,2.17
2023-07-22T17:19:28.832Z,2.95
2023-07-22T17:24:30.503Z,2.25
2023-07-22T17:29:32.201Z,1.90
2023-07-22T17:34:33.774Z,1.90
2023-07-22T17:39:35.185Z,1.85
2023-07-22T17:44:36.697Z,1.75
2023-07-22T17:49:38.396Z,2.10
2023-07-22T17:54:39.970Z,2.22
2023-07-22T17:59:42.266Z,2.10
2023-07-22T18:04:43.776Z,2.00
2023-07-22T18:09:45.239Z,2.88
2023-07-22T18:14:46.657Z,2.55
2023-07-22T18:19:49.032Z,2.10
2023-07-22T18:24:50.863Z,2.25
2023-07-22T18:29:52.638Z,1.98
2023-07-22T18:34:59.043Z,2.05
2023-07-22T18:40:00.611Z,2.10
2023-07-22T18:45:02.055Z,1.75
2023-07-22T18:50:03.876Z,2.33
2023-07-22T18:55:05.800Z,2.53
2023-07-22T19:00:07.625Z,2.63
2023-07-22T19:05:09.261Z,2.72
2023-07-22T19:10:11.144Z,2.50
2023-07-22T19:15:12.600Z,2.90
2023-07-22T19:20:14.421Z,2.80
2023-07-22T19:25:15.973Z,2.88
2023-07-22T19:30:17.793Z,2.65
2023-07-22T19:35:20.138Z,2.70
2023-07-22T19:40:21.656Z,2.60
2023-07-22T19:45:23.562Z,2.63
2023-07-22T19:50:25.080Z,2.53
2023-07-22T19:55:26.536Z,3.10
2023-07-22T20:00:28.112Z,3.88
2023-07-22T20:05:29.777Z,2.97
2023-07-22T20:10:31.328Z,2.75
2023-07-22T20:15:36.201Z,3.35
2023-07-22T20:20:37.623Z,3.35
2023-07-22T20:25:40.528Z,2.90
2023-07-22T20:30:42.153Z,2.78
2023-07-22T20:35:43.753Z,3.60
2023-07-22T20:40:45.378Z,3.40
2023-07-22T20:45:47.152Z,3.05
2023-07-22T20:50:48.666Z,3.35
2023-07-22T20:55:50.361Z,3.72
2023-07-22T21:00:53.005Z,3.20
2023-07-22T21:05:58.058Z,3.50
2023-07-22T21:11:01.563Z,3.67
2023-07-22T21:16:03.595Z,3.65
2023-07-22T21:21:08.758Z,3.30
2023-07-22T21:26:10.378Z,3.08
2023-07-22T21:31:11.958Z,3.25
2023-07-22T21:36:13.703Z,3.58
2023-07-22T21:41:15.135Z,3.33
2023-07-22T21:46:16.755Z,3.22
2023-07-22T21:51:18.326Z,3.67
2023-07-22T21:56:20.009Z,3.83
2023-07-22T22:01:21.512Z,3.67
2023-07-22T22:06:23.178Z,3.75
2023-07-22T22:11:24.588Z,3.85
2023-07-22T22:16:26.154Z,3.92
2023-07-22T22:21:27.859Z,3.47
2023-07-22T22:26:29.570Z,4.22
2023-07-22T22:31:33.721Z,3.97
2023-07-22T22:36:35.154Z,3.95
2023-07-22T22:41:38.515Z,4.20
2023-07-22T22:46:40.028Z,4.07
2023-07-22T22:51:41.661Z,3.70
2023-07-22T22:56:43.062Z,4.00
2023-07-22T23:01:44.655Z,3.70
2023-07-22T23:06:46.126Z,3.58
2023-07-22T23:11:47.761Z,3.95
2023-07-22T23:16:49.283Z,4.32
2023-07-22T23:21:50.717Z,3.88
2023-07-22T23:27:01.491Z,4.10
2023-07-22T23:32:02.988Z,4.03
2023-07-22T23:37:04.592Z,3.58
2023-07-22T23:42:06.154Z,4.05
2023-07-22T23:47:07.765Z,4.20
2023-07-22T23:52:09.215Z,4.07
2023-07-22T23:57:10.665Z,3.78
